sensor_id;sensor_type;location;lat;lon;timestamp;temperature;humidity
42145;DHT22;27813;43.516;11.890;2023-01-26T00:02:42;5.40;82.10
42145;DHT22;27813;43.516;11.890;2023-01-26T00:06:46;5.40;82.10
42145;DHT22;27813;43.516;11.890;2023-01-26T00:10:50;5.40;82.10
42145;DHT22;27813;43.516;11.890;2023-01-26T00:14:54;5.40;82.00
42145;DHT22;27813;43.516;11.890;2023-01-26T00:18:58;5.40;81.80
42145;DHT22;27813;43.516;11.890;2023-01-26T00:23:02;5.40;81.70
42145;DHT22;27813;43.516;11.890;2023-01-26T00:27:05;5.40;81.70
42145;DHT22;27813;43.516;11.890;2023-01-26T05:34:40;1.10;88.80
42145;DHT22;27813;43.516;11.890;2023-01-26T05:38:46;1.10;89.70
42145;DHT22;27813;43.516;11.890;2023-01-26T05:42:55;1.30;89.50
42145;DHT22;27813;43.516;11.890;2023-01-26T05:47:18;1.30;89.20
42145;DHT22;27813;43.516;11.890;2023-01-26T05:51:24;1.10;89.10
42145;DHT22;27813;43.516;11.890;2023-01-26T05:55:29;1.10;89.40
42145;DHT22;27813;43.516;11.890;2023-01-26T05:59:33;1.20;89.60
42145;DHT22;27813;43.516;11.890;2023-01-26T06:03:39;1.20;89.60
42145;DHT22;27813;43.516;11.890;2023-01-26T06:07:43;1.30;89.40
42145;DHT22;27813;43.516;11.890;2023-01-26T06:11:53;1.40;89.20
42145;DHT22;27813;43.516;11.890;2023-01-26T06:16:07;1.30;88.90
42145;DHT22;27813;43.516;11.890;2023-01-26T06:20:12;1.00;88.90
42145;DHT22;27813;43.516;11.890;2023-01-26T06:24:25;0.90;89.20
42145;DHT22;27813;43.516;11.890;2023-01-26T06:28:29;0.60;89.50
42145;DHT22;27813;43.516;11.890;2023-01-26T06:32:34;0.60;90.00
42145;DHT22;27813;43.516;11.890;2023-01-26T06:36:38;0.60;90.00
42145;DHT22;27813;43.516;11.890;2023-01-26T06:40:46;0.40;90.20
42145;DHT22;27813;43.516;11.890;2023-01-26T06:44:50;0.40;90.60
42145;DHT22;27813;43.516;11.890;2023-01-26T06:48:54;0.60;90.90
42145;DHT22;27813;43.516;11.890;2023-01-26T06:53:01;0.80;90.70
42145;DHT22;27813;43.516;11.890;2023-01-26T06:57:17;0.90;90.50
42145;DHT22;27813;43.516;11.890;2023-01-26T07:01:26;1.00;90.50
42145;DHT22;27813;43.516;11.890;2023-01-26T07:05:30;1.30;90.30
42145;DHT22;27813;43.516;11.890;2023-01-26T07:09:34;1.40;90.10
42145;DHT22;27813;43.516;11.890;2023-01-26T07:13:39;1.40;90.10
42145;DHT22;27813;43.516;11.890;2023-01-26T07:17:43;1.50;90.10
42145;DHT22;27813;43.516;11.890;2023-01-26T07:21:47;1.40;90.00
42145;DHT22;27813;43.516;11.890;2023-01-26T07:25:52;1.50;90.10
42145;DHT22;27813;43.516;11.890;2023-01-26T07:29:56;1.50;90.20
42145;DHT22;27813;43.516;11.890;2023-01-26T07:34:00;1.70;90.10
42145;DHT22;27813;43.516;11.890;2023-01-26T07:38:05;1.80;89.80
42145;DHT22;27813;43.516;11.890;2023-01-26T07:42:09;1.80;89.60
42145;DHT22;27813;43.516;11.890;2023-01-26T07:46:33;1.90;89.50
42145;DHT22;27813;43.516;11.890;2023-01-26T07:50:39;1.90;89.60
42145;DHT22;27813;43.516;11.890;2023-01-26T07:54:43;2.00;89.40
42145;DHT22;27813;43.516;11.890;2023-01-26T07:58:51;1.90;89.40
42145;DHT22;27813;43.516;11.890;2023-01-26T08:02:56;2.10;89.50
42145;DHT22;27813;43.516;11.890;2023-01-26T08:07:00;2.20;89.20
42145;DHT22;27813;43.516;11.890;2023-01-26T08:11:05;2.30;89.20
42145;DHT22;27813;43.516;11.890;2023-01-26T08:15:10;2.40;89.00
42145;DHT22;27813;43.516;11.890;2023-01-26T08:19:14;2.30;88.90
42145;DHT22;27813;43.516;11.890;2023-01-26T08:23:18;2.30;88.90
42145;DHT22;27813;43.516;11.890;2023-01-26T08:27:23;2.40;89.10
42145;DHT22;27813;43.516;11.890;2023-01-26T08:31:26;2.40;89.10
42145;DHT22;27813;43.516;11.890;2023-01-26T08:35:31;2.50;89.10
42145;DHT22;27813;43.516;11.890;2023-01-26T08:39:36;2.80;89.00
42145;DHT22;27813;43.516;11.890;2023-01-26T08:43:40;2.90;88.80
42145;DHT22;27813;43.516;11.890;2023-01-26T08:47:48;3.20;88.70
42145;DHT22;27813;43.516;11.890;2023-01-26T08:51:53;3.40;88.50
42145;DHT22;27813;43.516;11.890;2023-01-26T08:56:00;3.60;88.30
42145;DHT22;27813;43.516;11.890;2023-01-26T09:00:05;3.90;88.20
42145;DHT22;27813;43.516;11.890;2023-01-26T09:04:09;4.10;88.00
42145;DHT22;27813;43.516;11.890;2023-01-26T09:08:13;4.40;87.80
42145;DHT22;27813;43.516;11.890;2023-01-26T09:12:17;4.80;87.50
42145;DHT22;27813;43.516;11.890;2023-01-26T09:16:22;5.00;87.20
42145;DHT22;27813;43.516;11.890;2023-01-26T09:20:27;5.40;86.80
42145;DHT22;27813;43.516;11.890;2023-01-26T09:24:31;5.50;86.20
42145;DHT22;27813;43.516;11.890;2023-01-26T09:28:35;5.70;85.80
42145;DHT22;27813;43.516;11.890;2023-01-26T09:32:40;5.80;85.50
42145;DHT22;27813;43.516;11.890;2023-01-26T09:36:44;5.90;85.30
42145;DHT22;27813;43.516;11.890;2023-01-26T09:41:14;6.10;84.70
42145;DHT22;27813;43.516;11.890;2023-01-26T09:45:28;6.20;84.00
42145;DHT22;27813;43.516;11.890;2023-01-26T09:49:50;6.30;82.70
42145;DHT22;27813;43.516;11.890;2023-01-26T09:54:30;6.40;81.80
42145;DHT22;27813;43.516;11.890;2023-01-26T09:58:39;6.40;81.10
42145;DHT22;27813;43.516;11.890;2023-01-26T10:02:54;6.50;81.10
42145;DHT22;27813;43.516;11.890;2023-01-26T10:07:11;6.50;80.40
42145;DHT22;27813;43.516;11.890;2023-01-26T10:11:45;6.50;79.90
42145;DHT22;27813;43.516;11.890;2023-01-26T10:16:08;6.50;79.30
42145;DHT22;27813;43.516;11.890;2023-01-26T10:24:22;6.50;79.00
42145;DHT22;27813;43.516;11.890;2023-01-26T10:28:29;6.60;78.40
42145;DHT22;27813;43.516;11.890;2023-01-26T10:32:40;6.60;78.00
42145;DHT22;27813;43.516;11.890;2023-01-26T10:36:45;6.70;77.90
42145;DHT22;27813;43.516;11.890;2023-01-26T10:40:50;6.60;77.30
42145;DHT22;27813;43.516;11.890;2023-01-26T10:44:54;6.70;77.00
42145;DHT22;27813;43.516;11.890;2023-01-26T10:49:21;6.70;76.70
42145;DHT22;27813;43.516;11.890;2023-01-26T10:53:28;6.70;76.70
42145;DHT22;27813;43.516;11.890;2023-01-26T10:57:37;6.70;76.60
42145;DHT22;27813;43.516;11.890;2023-01-26T11:01:58;6.80;76.60
42145;DHT22;27813;43.516;11.890;2023-01-26T11:06:17;6.90;76.50
42145;DHT22;27813;43.516;11.890;2023-01-26T11:14:30;6.90;76.00
42145;DHT22;27813;43.516;11.890;2023-01-26T11:32:40;7.00;75.60
42145;DHT22;27813;43.516;11.890;2023-01-26T11:36:37;7.00;75.30
42145;DHT22;27813;43.516;11.890;2023-01-26T11:41:09;7.00;74.90
42145;DHT22;27813;43.516;11.890;2023-01-26T11:45:32;7.00;74.70
42145;DHT22;27813;43.516;11.890;2023-01-26T11:50:00;6.90;74.70
42145;DHT22;27813;43.516;11.890;2023-01-26T11:58:40;6.90;74.30
42145;DHT22;27813;43.516;11.890;2023-01-26T12:02:53;6.90;74.50
42145;DHT22;27813;43.516;11.890;2023-01-26T12:07:27;6.90;74.30
42145;DHT22;27813;43.516;11.890;2023-01-26T12:11:41;7.00;74.60
42145;DHT22;27813;43.516;11.890;2023-01-26T12:15:55;7.10;74.20
42145;DHT22;27813;43.516;11.890;2023-01-26T12:24:39;7.40;73.80
42145;DHT22;27813;43.516;11.890;2023-01-26T12:33:20;7.50;72.90
42145;DHT22;27813;43.516;11.890;2023-01-26T12:37:44;7.40;72.50
42145;DHT22;27813;43.516;11.890;2023-01-26T12:42:15;7.20;72.70
42145;DHT22;27813;43.516;11.890;2023-01-26T12:46:21;7.10;72.80
42145;DHT22;27813;43.516;11.890;2023-01-26T12:50:38;6.90;73.10
42145;DHT22;27813;43.516;11.890;2023-01-26T12:55:03;7.00;73.40
42145;DHT22;27813;43.516;11.890;2023-01-26T12:59:33;7.00;73.10
42145;DHT22;27813;43.516;11.890;2023-01-26T13:03:59;6.90;72.80
42145;DHT22;27813;43.516;11.890;2023-01-26T13:13:24;6.70;72.90
42145;DHT22;27813;43.516;11.890;2023-01-26T13:25:47;6.20;73.00
42145;DHT22;27813;43.516;11.890;2023-01-26T13:29:59;6.10;73.10
42145;DHT22;27813;43.516;11.890;2023-01-26T13:34:07;6.10;73.10
42145;DHT22;27813;43.516;11.890;2023-01-26T13:38:26;6.10;73.20
42145;DHT22;27813;43.516;11.890;2023-01-26T13:42:36;6.10;73.10
42145;DHT22;27813;43.516;11.890;2023-01-26T13:47:48;6.10;72.90
42145;DHT22;27813;43.516;11.890;2023-01-26T13:51:31;6.10;72.90
42145;DHT22;27813;43.516;11.890;2023-01-26T13:55:37;6.00;73.00
42145;DHT22;27813;43.516;11.890;2023-01-26T13:59:49;5.90;72.70
42145;DHT22;27813;43.516;11.890;2023-01-26T14:04:11;5.90;72.50
42145;DHT22;27813;43.516;11.890;2023-01-26T14:08:17;5.90;72.60
42145;DHT22;27813;43.516;11.890;2023-01-26T14:12:33;5.90;72.00
42145;DHT22;27813;43.516;11.890;2023-01-26T14:16:38;5.80;71.90
42145;DHT22;27813;43.516;11.890;2023-01-26T14:20:42;5.80;72.00
42145;DHT22;27813;43.516;11.890;2023-01-26T14:24:50;5.70;72.00
42145;DHT22;27813;43.516;11.890;2023-01-26T14:28:54;5.60;72.40
42145;DHT22;27813;43.516;11.890;2023-01-26T14:33:11;5.50;72.40
42145;DHT22;27813;43.516;11.890;2023-01-26T14:37:16;5.50;72.70
42145;DHT22;27813;43.516;11.890;2023-01-26T14:41:24;5.40;72.90
42145;DHT22;27813;43.516;11.890;2023-01-26T14:45:30;5.40;73.10
42145;DHT22;27813;43.516;11.890;2023-01-26T14:49:58;5.30;73.40
42145;DHT22;27813;43.516;11.890;2023-01-26T14:54:21;5.30;73.70
42145;DHT22;27813;43.516;11.890;2023-01-26T14:58:30;5.20;73.90
42145;DHT22;27813;43.516;11.890;2023-01-26T15:02:42;5.00;74.20
42145;DHT22;27813;43.516;11.890;2023-01-26T15:06:47;4.90;74.80
42145;DHT22;27813;43.516;11.890;2023-01-26T15:10:58;4.90;75.10
42145;DHT22;27813;43.516;11.890;2023-01-26T15:15:22;4.80;75.40
42145;DHT22;27813;43.516;11.890;2023-01-26T15:19:38;4.80;75.60
42145;DHT22;27813;43.516;11.890;2023-01-26T15:23:45;4.70;75.80
42145;DHT22;27813;43.516;11.890;2023-01-26T15:27:54;4.60;75.90
42145;DHT22;27813;43.516;11.890;2023-01-26T15:32:01;4.50;76.20
42145;DHT22;27813;43.516;11.890;2023-01-26T15:36:19;4.40;76.40
42145;DHT22;27813;43.516;11.890;2023-01-26T15:40:23;4.40;76.70
42145;DHT22;27813;43.516;11.890;2023-01-26T15:44:27;4.30;77.00
42145;DHT22;27813;43.516;11.890;2023-01-26T15:48:31;4.20;77.30
42145;DHT22;27813;43.516;11.890;2023-01-26T15:52:37;4.10;77.50
42145;DHT22;27813;43.516;11.890;2023-01-26T15:56:43;4.10;77.70
42145;DHT22;27813;43.516;11.890;2023-01-26T16:00:48;4.00;77.90
42145;DHT22;27813;43.516;11.890;2023-01-26T16:04:53;4.00;78.20
42145;DHT22;27813;43.516;11.890;2023-01-26T16:08:57;3.90;78.50
42145;DHT22;27813;43.516;11.890;2023-01-26T16:13:04;3.90;78.70
42145;DHT22;27813;43.516;11.890;2023-01-26T16:17:15;3.90;78.80
42145;DHT22;27813;43.516;11.890;2023-01-26T16:21:32;3.90;79.10
42145;DHT22;27813;43.516;11.890;2023-01-26T16:25:37;3.90;79.00
42145;DHT22;27813;43.516;11.890;2023-01-26T16:29:42;3.90;79.10
42145;DHT22;27813;43.516;11.890;2023-01-26T16:33:47;3.80;79.20
42145;DHT22;27813;43.516;11.890;2023-01-26T16:37:52;3.80;79.40
42145;DHT22;27813;43.516;11.890;2023-01-26T16:41:56;3.80;79.60
42145;DHT22;27813;43.516;11.890;2023-01-26T16:46:00;3.80;79.50
42145;DHT22;27813;43.516;11.890;2023-01-26T16:50:04;3.80;79.40
42145;DHT22;27813;43.516;11.890;2023-01-26T16:54:09;3.70;79.50
42145;DHT22;27813;43.516;11.890;2023-01-26T16:58:14;3.60;79.70
42145;DHT22;27813;43.516;11.890;2023-01-26T17:02:22;3.70;79.80
42145;DHT22;27813;43.516;11.890;2023-01-26T17:06:27;3.70;79.90
42145;DHT22;27813;43.516;11.890;2023-01-26T17:10:32;3.60;79.90
42145;DHT22;27813;43.516;11.890;2023-01-26T17:14:37;3.60;80.10
42145;DHT22;27813;43.516;11.890;2023-01-26T17:18:42;3.60;80.00
42145;DHT22;27813;43.516;11.890;2023-01-26T17:22:48;3.50;80.10
42145;DHT22;27813;43.516;11.890;2023-01-26T17:26:53;3.40;80.30
42145;DHT22;27813;43.516;11.890;2023-01-26T17:30:57;3.40;80.50
42145;DHT22;27813;43.516;11.890;2023-01-26T17:35:04;3.50;80.50
42145;DHT22;27813;43.516;11.890;2023-01-26T17:39:09;3.50;80.40
42145;DHT22;27813;43.516;11.890;2023-01-26T17:43:13;3.50;80.40
42145;DHT22;27813;43.516;11.890;2023-01-26T17:47:17;3.40;80.60
42145;DHT22;27813;43.516;11.890;2023-01-26T17:51:21;3.40;80.70
42145;DHT22;27813;43.516;11.890;2023-01-26T17:55:26;3.40;80.80
42145;DHT22;27813;43.516;11.890;2023-01-26T17:59:30;3.40;81.00
42145;DHT22;27813;43.516;11.890;2023-01-26T18:03:36;3.40;81.00
42145;DHT22;27813;43.516;11.890;2023-01-26T18:07:42;3.40;81.00
42145;DHT22;27813;43.516;11.890;2023-01-26T18:11:47;3.40;80.90
42145;DHT22;27813;43.516;11.890;2023-01-26T18:15:52;3.40;80.70
42145;DHT22;27813;43.516;11.890;2023-01-26T18:19:57;3.40;80.80
42145;DHT22;27813;43.516;11.890;2023-01-26T18:24:03;3.20;81.20
42145;DHT22;27813;43.516;11.890;2023-01-26T18:28:08;3.20;81.60
42145;DHT22;27813;43.516;11.890;2023-01-26T18:32:12;3.20;81.60
42145;DHT22;27813;43.516;11.890;2023-01-26T18:36:19;3.20;81.70
42145;DHT22;27813;43.516;11.890;2023-01-26T18:40:27;3.20;81.70
42145;DHT22;27813;43.516;11.890;2023-01-26T18:44:31;3.10;81.80
42145;DHT22;27813;43.516;11.890;2023-01-26T18:48:36;2.90;82.10
42145;DHT22;27813;43.516;11.890;2023-01-26T18:52:42;2.80;82.30
42145;DHT22;27813;43.516;11.890;2023-01-26T18:56:46;2.80;82.40
42145;DHT22;27813;43.516;11.890;2023-01-26T19:00:53;2.60;82.40
42145;DHT22;27813;43.516;11.890;2023-01-26T19:04:59;2.50;82.60
42145;DHT22;27813;43.516;11.890;2023-01-26T19:09:04;2.40;83.00
42145;DHT22;27813;43.516;11.890;2023-01-26T19:13:08;2.30;83.20
42145;DHT22;27813;43.516;11.890;2023-01-26T19:17:13;2.40;83.60
42145;DHT22;27813;43.516;11.890;2023-01-26T19:21:18;2.40;83.20
42145;DHT22;27813;43.516;11.890;2023-01-26T19:25:24;2.40;83.20
42145;DHT22;27813;43.516;11.890;2023-01-26T19:29:29;2.40;83.10
42145;DHT22;27813;43.516;11.890;2023-01-26T19:33:35;2.30;83.10
42145;DHT22;27813;43.516;11.890;2023-01-26T19:37:39;2.10;83.40
42145;DHT22;27813;43.516;11.890;2023-01-26T19:41:44;2.20;83.70
42145;DHT22;27813;43.516;11.890;2023-01-26T19:45:55;2.20;83.80
42145;DHT22;27813;43.516;11.890;2023-01-26T19:49:59;2.20;83.90
42145;DHT22;27813;43.516;11.890;2023-01-26T19:54:05;2.10;84.00
42145;DHT22;27813;43.516;11.890;2023-01-26T19:58:09;2.10;84.20
42145;DHT22;27813;43.516;11.890;2023-01-26T20:02:14;2.10;84.10
42145;DHT22;27813;43.516;11.890;2023-01-26T20:06:22;2.10;84.20
42145;DHT22;27813;43.516;11.890;2023-01-26T20:10:33;2.30;84.30
42145;DHT22;27813;43.516;11.890;2023-01-26T20:14:51;2.40;83.80
42145;DHT22;27813;43.516;11.890;2023-01-26T20:19:03;2.40;83.50
42145;DHT22;27813;43.516;11.890;2023-01-26T20:23:12;2.30;83.90
42145;DHT22;27813;43.516;11.890;2023-01-26T20:27:21;2.30;83.70
42145;DHT22;27813;43.516;11.890;2023-01-26T20:31:26;2.40;83.80
42145;DHT22;27813;43.516;11.890;2023-01-26T20:35:33;2.70;83.20
42145;DHT22;27813;43.516;11.890;2023-01-26T20:39:41;2.70;82.70
42145;DHT22;27813;43.516;11.890;2023-01-26T20:43:55;2.70;82.40
42145;DHT22;27813;43.516;11.890;2023-01-26T20:48:07;2.70;82.30
42145;DHT22;27813;43.516;11.890;2023-01-26T20:52:13;2.70;82.20
42145;DHT22;27813;43.516;11.890;2023-01-26T20:56:21;2.60;82.50
42145;DHT22;27813;43.516;11.890;2023-01-26T21:00:26;2.50;82.50
42145;DHT22;27813;43.516;11.890;2023-01-26T21:04:34;2.50;82.40
42145;DHT22;27813;43.516;11.890;2023-01-26T21:08:41;2.40;82.80
42145;DHT22;27813;43.516;11.890;2023-01-26T21:12:47;2.60;82.50
42145;DHT22;27813;43.516;11.890;2023-01-26T21:17:00;2.60;82.30
42145;DHT22;27813;43.516;11.890;2023-01-26T21:21:06;2.50;82.30
42145;DHT22;27813;43.516;11.890;2023-01-26T21:25:13;2.50;82.40
42145;DHT22;27813;43.516;11.890;2023-01-26T21:29:19;2.50;82.20
42145;DHT22;27813;43.516;11.890;2023-01-26T21:33:24;2.40;82.10
42145;DHT22;27813;43.516;11.890;2023-01-26T21:37:28;2.30;82.10
42145;DHT22;27813;43.516;11.890;2023-01-26T21:41:33;2.00;82.30
42145;DHT22;27813;43.516;11.890;2023-01-26T21:45:59;1.90;82.50
42145;DHT22;27813;43.516;11.890;2023-01-26T21:50:06;1.70;82.90
42145;DHT22;27813;43.516;11.890;2023-01-26T21:54:13;1.70;82.70
42145;DHT22;27813;43.516;11.890;2023-01-26T21:58:17;1.60;82.70
42145;DHT22;27813;43.516;11.890;2023-01-26T22:02:45;1.60;82.90
42145;DHT22;27813;43.516;11.890;2023-01-26T22:06:49;1.60;82.70
42145;DHT22;27813;43.516;11.890;2023-01-26T22:10:55;1.50;82.60
42145;DHT22;27813;43.516;11.890;2023-01-26T22:14:59;1.30;82.70
42145;DHT22;27813;43.516;11.890;2023-01-26T22:19:04;1.10;83.00
42145;DHT22;27813;43.516;11.890;2023-01-26T22:23:09;1.00;83.40
42145;DHT22;27813;43.516;11.890;2023-01-26T22:27:14;0.90;83.70
42145;DHT22;27813;43.516;11.890;2023-01-26T22:31:19;1.00;83.80
42145;DHT22;27813;43.516;11.890;2023-01-26T22:35:30;1.10;83.70
42145;DHT22;27813;43.516;11.890;2023-01-26T22:39:35;1.20;83.80
42145;DHT22;27813;43.516;11.890;2023-01-26T22:43:39;1.40;83.90
42145;DHT22;27813;43.516;11.890;2023-01-26T22:47:43;1.50;83.80
42145;DHT22;27813;43.516;11.890;2023-01-26T22:51:47;1.70;83.50
42145;DHT22;27813;43.516;11.890;2023-01-26T22:55:52;1.90;83.40
42145;DHT22;27813;43.516;11.890;2023-01-26T22:59:56;2.00;83.30
42145;DHT22;27813;43.516;11.890;2023-01-26T23:04:01;2.00;83.30
42145;DHT22;27813;43.516;11.890;2023-01-26T23:08:05;2.00;83.40
42145;DHT22;27813;43.516;11.890;2023-01-26T23:12:10;2.10;83.20
42145;DHT22;27813;43.516;11.890;2023-01-26T23:16:14;2.20;83.10
42145;DHT22;27813;43.516;11.890;2023-01-26T23:20:19;2.30;83.20
42145;DHT22;27813;43.516;11.890;2023-01-26T23:24:24;2.50;82.80
42145;DHT22;27813;43.516;11.890;2023-01-26T23:28:34;2.70;82.60
42145;DHT22;27813;43.516;11.890;2023-01-26T23:32:38;2.70;82.50
42145;DHT22;27813;43.516;11.890;2023-01-26T23:36:42;2.70;82.50
42145;DHT22;27813;43.516;11.890;2023-01-26T23:40:48;2.70;82.60
42145;DHT22;27813;43.516;11.890;2023-01-26T23:44:52;2.70;82.70
42145;DHT22;27813;43.516;11.890;2023-01-26T23:48:56;2.80;82.70
42145;DHT22;27813;43.516;11.890;2023-01-26T23:53:01;3.00;82.40
42145;DHT22;27813;43.516;11.890;2023-01-26T23:57:05;3.10;81.80
